createdAt,value
2023-02-11T00:02:52.331Z,14.09
2023-02-11T00:08:17.350Z,14.06
2023-02-11T00:13:41.571Z,12.70
2023-02-11T00:19:04.682Z,12.88
2023-02-11T00:24:23.413Z,12.52
2023-02-11T00:29:44.672Z,13.64
2023-02-11T00:35:09.432Z,12.50
2023-02-11T00:40:31.401Z,12.45
2023-02-11T00:45:50.587Z,12.93
2023-02-11T00:51:10.537Z,12.89
2023-02-11T00:56:58.851Z,14.07
2023-02-11T01:02:22.685Z,13.11
2023-02-11T01:07:43.814Z,13.06
2023-02-11T01:13:08.477Z,12.19
2023-02-11T01:18:33.086Z,11.24
2023-02-11T01:23:50.564Z,12.19
2023-02-11T01:29:32.554Z,12.08
2023-02-11T01:34:55.710Z,12.28
2023-02-11T01:40:15.320Z,11.90
2023-02-11T01:45:36.846Z,11.32
2023-02-11T01:51:12.851Z,11.49
2023-02-11T01:56:36.581Z,10.82
2023-02-11T02:01:59.190Z,10.71
2023-02-11T02:07:21.590Z,10.36
2023-02-11T02:12:45.836Z,11.04
2023-02-11T02:18:09.756Z,9.97
2023-02-11T02:23:54.917Z,11.09
2023-02-11T02:29:37.553Z,10.81
2023-02-11T02:35:10.457Z,10.42
2023-02-11T02:40:36.092Z,10.27
2023-02-11T02:45:55.233Z,10.25
2023-02-11T02:51:24.327Z,10.80
2023-02-11T02:57:12.563Z,10.43
2023-02-11T03:03:21.161Z,11.95
2023-02-11T03:08:41.625Z,10.74
2023-02-11T03:14:05.676Z,11.25
2023-02-11T03:19:24.611Z,10.95
2023-02-11T03:24:47.543Z,10.74
2023-02-11T03:30:07.449Z,11.87
2023-02-11T03:35:32.836Z,11.30
2023-02-11T03:40:51.608Z,10.72
2023-02-11T03:46:12.700Z,12.25
2023-02-11T03:51:37.330Z,11.04
2023-02-11T03:57:00.989Z,11.07
2023-02-11T04:02:19.600Z,11.14
2023-02-11T04:07:41.704Z,11.33
2023-02-11T04:13:20.724Z,12.10
2023-02-11T04:19:01.439Z,11.99
2023-02-11T04:24:18.870Z,10.88
2023-02-11T04:29:41.096Z,11.26
2023-02-11T04:35:04.021Z,11.79
2023-02-11T04:40:28.446Z,11.80
2023-02-11T04:45:52.145Z,11.66
2023-02-11T04:51:15.053Z,11.19
2023-02-11T04:56:38.680Z,11.67
2023-02-11T05:02:02.949Z,11.57
2023-02-11T05:07:26.186Z,11.88
2023-02-11T05:12:50.312Z,11.63
2023-02-11T05:18:30.851Z,12.77
2023-02-11T05:23:54.322Z,12.07
2023-02-11T05:29:18.806Z,11.91
2023-02-11T05:34:40.712Z,11.44
2023-02-11T05:40:31.838Z,13.48
2023-02-11T05:45:54.959Z,12.86
2023-02-11T05:51:36.501Z,12.73
2023-02-11T05:56:59.813Z,12.20
2023-02-11T06:02:33.182Z,12.78
2023-02-11T06:07:55.989Z,12.22
2023-02-11T06:13:15.022Z,11.97
2023-02-11T06:18:38.499Z,12.54
2023-02-11T06:24:02.777Z,12.84
2023-02-11T06:29:27.665Z,12.82
2023-02-11T06:35:15.388Z,13.21
2023-02-11T06:40:38.450Z,13.92
2023-02-11T06:46:01.334Z,12.43
2023-02-11T06:51:39.538Z,13.38
2023-02-11T06:57:02.612Z,12.60
2023-02-11T07:02:27.014Z,12.52
2023-02-11T07:07:44.064Z,12.90
2023-02-11T07:13:05.108Z,12.84
2023-02-11T07:18:26.586Z,12.30
2023-02-11T07:23:47.762Z,12.67
2023-02-11T07:29:11.957Z,13.11
2023-02-11T07:34:35.440Z,12.11
2023-02-11T07:39:56.112Z,12.93
2023-02-11T07:45:16.649Z,12.62
2023-02-11T07:50:41.516Z,12.72
2023-02-11T07:56:00.819Z,12.28
2023-02-11T08:01:20.972Z,11.69
2023-02-11T08:06:42.287Z,12.34
2023-02-11T08:12:28.043Z,12.87
2023-02-11T08:17:46.301Z,11.81
2023-02-11T08:23:09.227Z,11.75
2023-02-11T08:28:29.767Z,11.69
2023-02-11T08:33:50.348Z,12.33
2023-02-11T08:39:19.598Z,11.88
2023-02-11T08:44:33.848Z,11.55
2023-02-11T08:49:59.265Z,11.97
2023-02-11T08:55:23.355Z,11.36
2023-02-11T09:01:11.836Z,13.92
2023-02-11T09:06:58.386Z,13.13
2023-02-11T09:12:21.255Z,12.54
2023-02-11T09:17:44.905Z,12.03
2023-02-11T09:23:09.315Z,12.69
2023-02-11T09:28:33.465Z,12.17
2023-02-11T09:33:55.263Z,12.80
2023-02-11T09:39:41.144Z,13.25
2023-02-11T09:45:04.669Z,11.62
2023-02-11T09:50:26.389Z,12.10
2023-02-11T09:55:47.637Z,11.33
2023-02-11T10:01:05.563Z,12.00
2023-02-11T10:06:30.058Z,12.24
2023-02-11T10:11:54.601Z,11.88
2023-02-11T10:17:27.913Z,12.07
2023-02-11T10:22:50.166Z,11.97
2023-02-11T10:28:11.019Z,13.27
2023-02-11T10:34:13.446Z,12.93
2023-02-11T10:39:37.335Z,12.57
2023-02-11T10:44:56.209Z,13.47
2023-02-11T10:50:20.663Z,13.93
2023-02-11T10:55:42.508Z,13.34
2023-02-11T11:01:23.886Z,13.82
2023-02-11T11:06:35.441Z,12.95
2023-02-11T11:11:57.604Z,14.17
2023-02-11T11:17:19.477Z,13.02
2023-02-11T11:22:38.457Z,12.87
2023-02-11T11:28:23.010Z,13.79
2023-02-11T11:34:03.166Z,13.15
2023-02-11T11:39:28.186Z,12.80
2023-02-11T11:44:52.386Z,13.00
2023-02-11T11:50:15.835Z,12.92
2023-02-11T11:55:43.753Z,13.08
2023-02-11T12:01:08.146Z,12.63
2023-02-11T12:06:34.877Z,12.70
2023-02-11T12:11:56.443Z,13.37
2023-02-11T12:17:29.731Z,15.31
2023-02-11T12:23:26.031Z,14.99
2023-02-11T12:28:48.860Z,13.46
2023-02-11T12:34:16.733Z,12.90
2023-02-11T12:40:11.470Z,13.48
2023-02-11T12:45:36.984Z,12.87
2023-02-11T12:51:15.684Z,12.83
2023-02-11T12:56:41.672Z,11.95
2023-02-11T13:02:02.451Z,12.59
2023-02-11T13:07:24.920Z,11.94
2023-02-11T13:12:49.266Z,12.04
2023-02-11T13:18:15.467Z,11.51
2023-02-11T13:24:02.528Z,11.90
2023-02-11T13:29:30.605Z,12.78
2023-02-11T13:34:56.986Z,12.10
2023-02-11T13:40:23.699Z,12.49
2023-02-11T13:45:48.754Z,12.15
2023-02-11T13:51:15.082Z,12.43
2023-02-11T13:57:11.644Z,12.73
2023-02-11T14:02:52.801Z,11.38
2023-02-11T14:09:00.564Z,13.00
2023-02-11T14:14:54.040Z,11.88
2023-02-11T14:20:48.201Z,9.87
2023-02-11T14:26:11.189Z,9.85
2023-02-11T14:31:49.050Z,9.44
2023-02-11T14:37:11.246Z,9.75
2023-02-11T14:42:37.539Z,9.94
2023-02-11T14:48:02.051Z,9.39
2023-02-11T14:53:22.247Z,9.55
2023-02-11T14:58:46.018Z,9.39
2023-02-11T15:04:04.709Z,9.95
2023-02-11T15:09:39.994Z,9.96
2023-02-11T15:15:00.760Z,9.53
2023-02-11T15:20:31.390Z,9.26
2023-02-11T15:25:54.634Z,9.82
2023-02-11T15:31:19.309Z,10.62
2023-02-11T15:37:03.297Z,11.12
2023-02-11T15:42:25.261Z,11.13
2023-02-11T15:47:45.762Z,10.57
2023-02-11T15:53:09.690Z,10.78
2023-02-11T15:58:38.786Z,10.60
2023-02-11T16:03:58.933Z,10.44
2023-02-11T16:09:43.833Z,10.43
2023-02-11T16:15:07.484Z,12.33
2023-02-11T16:20:57.330Z,12.74
2023-02-11T16:26:19.969Z,12.24
2023-02-11T16:31:40.626Z,11.40
2023-02-11T16:37:04.565Z,11.95
2023-02-11T16:42:27.741Z,12.05
2023-02-11T16:47:52.687Z,11.32
2023-02-11T16:53:14.144Z,10.67
2023-02-11T16:58:38.269Z,11.07
2023-02-11T17:04:03.167Z,10.24
2023-02-11T17:09:30.800Z,10.64
2023-02-11T17:14:53.382Z,13.20
2023-02-11T17:20:18.400Z,15.19
2023-02-11T17:25:43.871Z,13.67
2023-02-11T17:31:11.884Z,13.96
2023-02-11T17:36:33.562Z,13.26
2023-02-11T17:42:34.491Z,14.03
2023-02-11T17:47:53.552Z,13.43
2023-02-11T17:53:58.349Z,15.10
2023-02-11T17:59:18.081Z,14.44
2023-02-11T18:04:39.573Z,15.42
2023-02-11T18:10:00.403Z,13.17
2023-02-11T18:15:26.155Z,14.23
2023-02-11T18:20:48.816Z,12.98
2023-02-11T18:26:16.092Z,12.94
2023-02-11T18:31:38.733Z,13.33
2023-02-11T18:36:56.776Z,13.25
2023-02-11T18:42:19.824Z,12.10
2023-02-11T18:47:47.152Z,13.17
2023-02-11T18:53:05.943Z,13.61
2023-02-11T18:58:26.367Z,13.90
2023-02-11T19:04:12.856Z,13.56
2023-02-11T19:09:34.479Z,12.80
2023-02-11T19:14:53.519Z,13.39
2023-02-11T19:20:17.922Z,13.54
2023-02-11T19:25:41.570Z,13.99
2023-02-11T19:31:00.946Z,13.43
2023-02-11T19:36:52.549Z,13.42
2023-02-11T19:42:15.429Z,12.90
2023-02-11T19:47:36.924Z,13.53
2023-02-11T19:53:43.327Z,14.09
2023-02-11T19:59:04.807Z,12.70
2023-02-11T20:04:25.945Z,12.27
2023-02-11T20:09:49.365Z,12.94
2023-02-11T20:15:30.398Z,14.01
2023-02-11T20:20:54.051Z,13.25
2023-02-11T20:26:34.084Z,13.76
2023-02-11T20:31:57.308Z,12.80
2023-02-11T20:37:19.124Z,12.60
2023-02-11T20:42:44.121Z,16.03
2023-02-11T20:48:04.673Z,14.06
2023-02-11T20:53:28.168Z,13.37
2023-02-11T20:58:47.592Z,13.00
2023-02-11T21:04:35.664Z,13.40
2023-02-11T21:09:55.782Z,13.31
2023-02-11T21:15:45.615Z,15.34
2023-02-11T21:21:07.173Z,12.53
2023-02-11T21:26:29.648Z,13.08
2023-02-11T21:32:03.391Z,13.29
2023-02-11T21:37:50.244Z,13.77
2023-02-11T21:43:15.974Z,14.26
2023-02-11T21:48:38.368Z,13.99
2023-02-11T21:53:59.128Z,15.10
2023-02-11T21:59:17.969Z,13.53
2023-02-11T22:05:02.494Z,15.35
2023-02-11T22:10:23.446Z,13.16
2023-02-11T22:15:45.728Z,12.23
2023-02-11T22:21:15.527Z,11.51
2023-02-11T22:26:37.669Z,11.68
2023-02-11T22:32:01.802Z,11.43
2023-02-11T22:37:25.417Z,11.20
2023-02-11T22:42:48.725Z,12.55
2023-02-11T22:48:23.175Z,13.67
2023-02-11T22:53:39.534Z,12.69
2023-02-11T22:59:30.041Z,14.24
2023-02-11T23:04:53.467Z,13.53
2023-02-11T23:10:17.806Z,14.16
2023-02-11T23:15:42.498Z,13.79
2023-02-11T23:21:08.200Z,13.31
2023-02-11T23:27:09.032Z,14.31
2023-02-11T23:33:38.151Z,14.98
2023-02-11T23:38:54.835Z,13.36
2023-02-11T23:44:16.693Z,13.19
2023-02-11T23:49:39.306Z,12.77
2023-02-11T23:55:04.359Z,14.23
